createdAt,value
2018-01-25T00:01:30.098Z,11.36
2018-01-25T00:02:30.061Z,11.22
2018-01-25T00:04:23.428Z,11.31
2018-01-25T00:05:23.387Z,11.27
2018-01-25T00:07:16.758Z,11.23
2018-01-25T00:08:16.706Z,11.23
2018-01-25T00:10:10.095Z,11.27
2018-01-25T00:11:10.055Z,11.30
2018-01-25T00:13:03.449Z,11.36
2018-01-25T00:14:03.430Z,11.30
2018-01-25T00:15:59.244Z,11.31
2018-01-25T00:16:59.201Z,11.31
2018-01-25T00:18:52.554Z,11.28
2018-01-25T00:19:52.513Z,11.25
2018-01-25T00:21:45.870Z,11.27
2018-01-25T00:22:45.833Z,11.12
2018-01-25T00:24:39.196Z,11.22
2018-01-25T00:25:39.149Z,11.23
2018-01-25T00:27:32.536Z,11.18
2018-01-25T00:28:32.490Z,11.20
2018-01-25T00:30:25.862Z,11.23
2018-01-25T00:31:25.821Z,11.20
2018-01-25T00:33:19.174Z,11.25
2018-01-25T00:34:19.148Z,11.23
2018-01-25T00:36:12.538Z,11.31
2018-01-25T00:37:12.451Z,11.31
2018-01-25T00:39:05.808Z,11.30
2018-01-25T00:40:05.767Z,11.25
2018-01-25T00:41:59.206Z,11.25
2018-01-25T00:42:59.175Z,11.28
2018-01-25T00:44:52.568Z,11.30
2018-01-25T00:45:52.487Z,11.30
2018-01-25T00:47:45.854Z,11.34
2018-01-25T00:48:45.807Z,11.34
2018-01-25T00:50:39.180Z,11.28
2018-01-25T00:51:39.146Z,11.28
2018-01-25T00:53:32.528Z,11.25
2018-01-25T00:54:32.497Z,11.31
2018-01-25T00:56:25.828Z,11.31
2018-01-25T00:57:25.793Z,11.28
2018-01-25T00:59:19.156Z,11.30
2018-01-25T01:00:19.119Z,11.19
2018-01-25T01:02:13.376Z,11.19
2018-01-25T01:03:13.299Z,11.19
2018-01-25T01:05:07.552Z,11.20
2018-01-25T01:06:07.532Z,11.19
2018-01-25T01:08:00.876Z,11.19
2018-01-25T01:09:00.821Z,11.09
2018-01-25T01:10:54.180Z,11.12
2018-01-25T01:11:54.163Z,11.19
2018-01-25T01:13:47.492Z,11.20
2018-01-25T01:14:47.457Z,11.12
2018-01-25T01:16:40.808Z,11.11
2018-01-25T01:17:40.779Z,11.15
2018-01-25T01:19:34.987Z,11.18
2018-01-25T01:20:34.939Z,11.18
2018-01-25T01:22:29.294Z,11.19
2018-01-25T01:23:29.253Z,11.22
2018-01-25T01:25:22.610Z,11.23
2018-01-25T01:26:22.582Z,11.15
2018-01-25T01:28:15.957Z,11.12
2018-01-25T01:29:15.915Z,11.13
2018-01-25T01:31:09.272Z,11.18
2018-01-25T01:32:09.238Z,11.25
2018-01-25T01:34:02.601Z,11.11
2018-01-25T01:35:02.570Z,11.16
2018-01-25T01:36:55.921Z,11.31
2018-01-25T01:37:55.875Z,11.20
2018-01-25T01:39:49.254Z,11.20
2018-01-25T01:40:49.211Z,11.18
2018-01-25T01:42:42.612Z,11.23
2018-01-25T01:43:42.534Z,11.23
2018-01-25T01:45:35.900Z,11.23
2018-01-25T01:46:35.865Z,11.15
2018-01-25T01:48:29.230Z,11.19
2018-01-25T01:49:29.193Z,11.15
2018-01-25T01:51:22.554Z,11.22
2018-01-25T01:52:22.513Z,11.20
2018-01-25T01:54:18.379Z,11.13
2018-01-25T01:55:18.336Z,11.19
2018-01-25T01:57:11.693Z,11.16
2018-01-25T01:58:11.650Z,11.18
2018-01-25T02:00:05.009Z,11.22
2018-01-25T02:01:04.970Z,11.12
2018-01-25T02:02:59.329Z,11.19
2018-01-25T02:03:59.290Z,11.09
2018-01-25T02:05:52.691Z,11.18
2018-01-25T02:06:52.614Z,11.08
2018-01-25T02:08:45.995Z,11.19
2018-01-25T02:09:45.930Z,11.20
2018-01-25T02:11:39.290Z,11.05
2018-01-25T02:12:39.244Z,11.08
2018-01-25T02:14:32.690Z,11.12
2018-01-25T02:15:32.575Z,11.05
2018-01-25T02:17:25.945Z,11.03
2018-01-25T02:18:25.904Z,11.08
2018-01-25T02:20:19.259Z,10.98
2018-01-25T02:21:19.220Z,11.00
2018-01-25T02:23:12.589Z,10.98
2018-01-25T02:24:12.542Z,10.97
2018-01-25T02:26:05.905Z,10.97
2018-01-25T02:27:05.860Z,10.98
2018-01-25T02:28:59.209Z,10.97
2018-01-25T02:29:59.172Z,10.98
2018-01-25T02:31:55.030Z,11.01
2018-01-25T02:32:54.989Z,10.98
2018-01-25T02:34:48.376Z,10.94
2018-01-25T02:35:48.312Z,11.01
2018-01-25T02:37:41.665Z,11.00
2018-01-25T02:38:41.648Z,10.97
2018-01-25T02:40:34.979Z,10.94
2018-01-25T02:41:34.946Z,11.01
2018-01-25T02:43:28.304Z,11.00
2018-01-25T02:44:28.274Z,11.05
2018-01-25T02:46:21.625Z,10.95
2018-01-25T02:47:21.589Z,10.90
2018-01-25T02:49:14.951Z,10.97
2018-01-25T02:50:14.903Z,10.98
2018-01-25T02:52:08.282Z,10.94
2018-01-25T02:53:08.238Z,10.83
2018-01-25T02:55:04.094Z,10.83
2018-01-25T02:56:04.057Z,10.86
2018-01-25T02:57:57.414Z,10.78
2018-01-25T02:58:57.370Z,10.75
2018-01-25T03:00:50.731Z,10.82
2018-01-25T03:01:50.689Z,10.73
2018-01-25T03:03:44.044Z,10.85
2018-01-25T03:04:44.005Z,10.79
2018-01-25T03:06:37.385Z,10.78
2018-01-25T03:07:37.343Z,10.82
2018-01-25T03:09:30.703Z,10.73
2018-01-25T03:10:30.667Z,10.76
2018-01-25T03:12:24.067Z,10.75
2018-01-25T03:13:23.981Z,10.65
2018-01-25T03:15:17.349Z,10.70
2018-01-25T03:16:17.308Z,10.64
2018-01-25T03:18:10.696Z,10.64
2018-01-25T03:19:10.633Z,10.65
2018-01-25T03:21:04.008Z,10.72
2018-01-25T03:22:03.965Z,10.64
2018-01-25T03:23:57.340Z,10.70
2018-01-25T03:24:57.299Z,10.70
2018-01-25T03:26:53.164Z,10.67
2018-01-25T03:27:53.119Z,10.64
2018-01-25T03:29:46.496Z,10.62
2018-01-25T03:30:46.458Z,10.60
2018-01-25T03:32:39.846Z,10.67
2018-01-25T03:33:39.775Z,10.62
2018-01-25T03:35:33.134Z,10.67
2018-01-25T03:36:33.093Z,10.58
2018-01-25T03:38:26.459Z,10.70
2018-01-25T03:39:26.411Z,10.62
2018-01-25T03:41:19.786Z,10.68
2018-01-25T03:42:19.739Z,10.73
2018-01-25T03:44:13.093Z,10.61
2018-01-25T03:45:13.070Z,10.55
2018-01-25T03:47:06.411Z,10.64
2018-01-25T03:48:06.367Z,10.55
2018-01-25T03:50:02.221Z,10.61
2018-01-25T03:51:02.185Z,10.57
2018-01-25T03:52:55.545Z,10.58
2018-01-25T03:53:55.502Z,10.60
2018-01-25T03:55:48.917Z,10.60
2018-01-25T03:56:48.815Z,10.60
2018-01-25T03:58:42.174Z,10.49
2018-01-25T03:59:42.132Z,10.65
2018-01-25T04:01:35.495Z,10.61
2018-01-25T04:02:35.462Z,10.62
2018-01-25T04:04:28.815Z,10.60
2018-01-25T04:05:28.776Z,10.60
2018-01-25T04:07:22.943Z,10.61
2018-01-25T04:08:22.932Z,10.64
2018-01-25T04:10:16.270Z,10.64
2018-01-25T04:11:16.231Z,10.62
2018-01-25T04:13:09.601Z,10.65
2018-01-25T04:14:09.553Z,10.68
2018-01-25T04:16:02.947Z,10.67
2018-01-25T04:17:02.871Z,10.62
2018-01-25T04:18:56.234Z,10.65
2018-01-25T04:19:56.189Z,10.65
2018-01-25T04:21:49.549Z,10.75
2018-01-25T04:22:49.502Z,10.73
2018-01-25T04:24:42.861Z,10.64
2018-01-25T04:25:42.823Z,10.72
2018-01-25T04:27:36.185Z,10.72
2018-01-25T04:28:36.149Z,10.79
2018-01-25T04:30:32.006Z,10.79
2018-01-25T04:31:31.967Z,10.78
2018-01-25T04:33:25.317Z,10.75
2018-01-25T04:34:25.282Z,10.78
2018-01-25T04:36:18.657Z,10.79
2018-01-25T04:37:18.600Z,10.75
2018-01-25T04:39:12.006Z,10.70
2018-01-25T04:40:11.916Z,10.72
2018-01-25T04:42:05.293Z,10.76
2018-01-25T04:43:05.238Z,10.82
2018-01-25T04:44:58.597Z,10.80
2018-01-25T04:45:58.558Z,10.72
2018-01-25T04:47:52.732Z,10.82
2018-01-25T04:48:52.696Z,10.82
2018-01-25T04:50:46.099Z,10.80
2018-01-25T04:51:46.010Z,10.73
2018-01-25T04:53:40.260Z,10.78
2018-01-25T04:54:40.204Z,10.82
2018-01-25T04:56:33.563Z,10.72
2018-01-25T04:57:33.530Z,10.78
2018-01-25T04:59:26.895Z,10.83
2018-01-25T05:00:26.850Z,10.78
2018-01-25T05:02:20.223Z,10.85
2018-01-25T05:03:20.186Z,10.90
2018-01-25T05:05:13.569Z,10.86
2018-01-25T05:06:13.522Z,10.86
2018-01-25T05:08:06.885Z,10.85
2018-01-25T05:09:06.842Z,10.82
2018-01-25T05:11:02.714Z,10.91
2018-01-25T05:12:02.667Z,10.80
2018-01-25T05:13:56.027Z,10.85
2018-01-25T05:14:55.990Z,10.83
2018-01-25T05:16:52.699Z,10.86
2018-01-25T05:17:52.683Z,10.82
2018-01-25T05:19:46.034Z,10.86
2018-01-25T05:20:45.993Z,10.82
2018-01-25T05:22:39.354Z,10.86
2018-01-25T05:23:39.311Z,10.83
2018-01-25T05:25:32.682Z,10.93
2018-01-25T05:26:32.638Z,10.76
2018-01-25T05:28:25.996Z,10.90
2018-01-25T05:29:25.956Z,10.87
2018-01-25T05:31:19.310Z,10.85
2018-01-25T05:32:19.267Z,10.82
2018-01-25T05:34:12.642Z,10.87
2018-01-25T05:35:12.587Z,10.90
2018-01-25T05:37:05.944Z,10.87
2018-01-25T05:38:05.909Z,10.87
2018-01-25T05:39:59.272Z,10.86
2018-01-25T05:40:59.225Z,10.93
2018-01-25T05:42:52.592Z,10.85
2018-01-25T05:43:52.537Z,10.80
2018-01-25T05:45:45.900Z,10.82
2018-01-25T05:46:45.863Z,10.80
2018-01-25T05:48:39.240Z,10.83
2018-01-25T05:49:39.185Z,10.83
2018-01-25T05:51:32.758Z,10.79
2018-01-25T05:52:32.718Z,10.87
2018-01-25T05:54:26.094Z,10.82
2018-01-25T05:55:26.046Z,10.73
2018-01-25T05:57:19.400Z,10.82
2018-01-25T05:58:19.365Z,10.86
2018-01-25T06:00:12.776Z,10.87
2018-01-25T06:01:12.685Z,10.90
2018-01-25T06:03:06.040Z,10.82
2018-01-25T06:04:05.992Z,10.86
2018-01-25T06:05:59.360Z,10.93
2018-01-25T06:06:59.321Z,10.90
2018-01-25T06:08:52.673Z,10.93
2018-01-25T06:09:52.633Z,10.85
2018-01-25T06:11:45.988Z,10.85
2018-01-25T06:12:45.949Z,10.82
2018-01-25T06:14:40.316Z,10.85
2018-01-25T06:15:40.271Z,10.78
2018-01-25T06:17:33.642Z,10.82
2018-01-25T06:18:33.593Z,10.78
2018-01-25T06:20:29.477Z,10.79
2018-01-25T06:21:29.482Z,10.80
2018-01-25T06:23:22.793Z,10.78
2018-01-25T06:24:22.758Z,10.78
2018-01-25T06:26:16.113Z,10.79
2018-01-25T06:27:16.077Z,10.76
2018-01-25T06:29:09.443Z,10.80
2018-01-25T06:30:09.398Z,10.76
2018-01-25T06:32:05.257Z,10.79
2018-01-25T06:33:05.268Z,10.76
2018-01-25T06:34:58.643Z,10.76
2018-01-25T06:35:58.602Z,10.76
2018-01-25T06:37:51.959Z,10.70
2018-01-25T06:38:51.926Z,10.80
2018-01-25T06:40:45.301Z,10.76
2018-01-25T06:41:45.276Z,10.78
2018-01-25T06:43:38.601Z,10.79
2018-01-25T06:44:38.562Z,10.70
2018-01-25T06:46:31.920Z,10.72
2018-01-25T06:47:31.893Z,10.73
2018-01-25T06:49:25.285Z,10.80
2018-01-25T06:50:25.212Z,10.76
2018-01-25T06:52:18.585Z,10.82
2018-01-25T06:53:18.544Z,10.70
2018-01-25T06:55:11.913Z,10.76
2018-01-25T06:56:11.882Z,10.79
2018-01-25T06:58:05.254Z,10.73
2018-01-25T06:59:05.214Z,10.78
2018-01-25T07:01:01.090Z,10.80
2018-01-25T07:02:01.047Z,10.78
2018-01-25T07:03:54.426Z,10.80
2018-01-25T07:04:54.356Z,10.82
2018-01-25T07:06:47.756Z,10.83
2018-01-25T07:07:47.723Z,10.87
2018-01-25T07:09:41.088Z,10.82
2018-01-25T07:10:41.041Z,10.90
2018-01-25T07:12:34.398Z,10.82
2018-01-25T07:13:34.425Z,10.86
2018-01-25T07:15:27.714Z,10.83
2018-01-25T07:16:27.674Z,10.91
2018-01-25T07:18:21.040Z,10.91
2018-01-25T07:19:21.001Z,10.91
2018-01-25T07:21:16.860Z,10.97
2018-01-25T07:22:16.821Z,10.98
2018-01-25T07:24:10.180Z,11.01
2018-01-25T07:25:10.133Z,11.00
2018-01-25T07:27:03.490Z,10.90
2018-01-25T07:28:03.449Z,10.85
2018-01-25T07:29:56.804Z,10.98
2018-01-25T07:30:56.765Z,10.98
2018-01-25T07:32:50.132Z,11.01
2018-01-25T07:33:50.085Z,10.95
2018-01-25T07:35:43.446Z,10.91
2018-01-25T07:36:43.399Z,10.95
2018-01-25T07:38:36.798Z,11.03
2018-01-25T07:39:36.755Z,10.93
2018-01-25T07:41:30.116Z,10.91
2018-01-25T07:42:30.085Z,11.08
2018-01-25T07:44:24.458Z,10.97
2018-01-25T07:45:24.406Z,11.04
2018-01-25T07:47:17.760Z,11.01
2018-01-25T07:48:17.722Z,10.95
2018-01-25T07:50:11.086Z,10.97
2018-01-25T07:51:11.057Z,11.05
2018-01-25T07:53:05.260Z,10.94
2018-01-25T07:54:05.217Z,11.04
2018-01-25T07:55:58.581Z,11.01
2018-01-25T07:56:58.532Z,11.00
2018-01-25T07:58:51.900Z,10.98
2018-01-25T07:59:51.847Z,10.91
2018-01-25T08:01:45.212Z,10.95
2018-01-25T08:02:45.167Z,10.95
2018-01-25T08:04:38.564Z,10.97
2018-01-25T08:05:38.540Z,10.93
2018-01-25T08:07:34.469Z,10.98
2018-01-25T08:08:34.371Z,11.03
2018-01-25T08:10:27.732Z,11.00
2018-01-25T08:11:27.688Z,10.97
2018-01-25T08:13:21.051Z,10.95
2018-01-25T08:14:21.013Z,10.97
2018-01-25T08:16:14.386Z,11.00
2018-01-25T08:17:14.387Z,11.00
2018-01-25T08:19:07.699Z,11.00
2018-01-25T08:20:07.646Z,11.05
2018-01-25T08:22:01.820Z,11.04
2018-01-25T08:23:01.780Z,11.13
2018-01-25T08:24:55.145Z,11.03
2018-01-25T08:25:55.103Z,11.03
2018-01-25T08:27:48.565Z,11.03
2018-01-25T08:28:48.440Z,11.05
2018-01-25T08:30:41.791Z,11.03
2018-01-25T08:31:41.753Z,10.98
2018-01-25T08:33:35.107Z,11.09
2018-01-25T08:34:35.070Z,10.97
2018-01-25T08:36:28.427Z,11.11
2018-01-25T08:37:28.386Z,11.04
2018-01-25T08:39:21.758Z,11.09
2018-01-25T08:40:21.702Z,11.09
2018-01-25T08:42:15.059Z,11.12
2018-01-25T08:43:15.028Z,11.05
2018-01-25T08:45:10.876Z,11.12
2018-01-25T08:46:10.839Z,11.15
2018-01-25T08:48:04.197Z,11.09
2018-01-25T08:49:04.157Z,11.19
2018-01-25T08:50:57.563Z,11.18
2018-01-25T08:51:57.482Z,11.11
2018-01-25T08:53:50.850Z,11.15
2018-01-25T08:54:50.814Z,11.16
2018-01-25T08:56:44.191Z,11.22
2018-01-25T08:57:44.136Z,11.12
2018-01-25T08:59:37.502Z,11.16
2018-01-25T09:00:37.466Z,11.19
2018-01-25T09:02:30.828Z,11.15
2018-01-25T09:03:30.778Z,11.16
2018-01-25T09:05:24.131Z,11.15
2018-01-25T09:06:24.094Z,11.15
2018-01-25T09:08:17.461Z,11.22
2018-01-25T09:09:17.408Z,11.19
2018-01-25T09:11:10.773Z,11.20
2018-01-25T09:12:10.727Z,11.20
2018-01-25T09:14:04.086Z,11.20
2018-01-25T09:15:04.045Z,11.15
2018-01-25T09:16:57.410Z,11.27
2018-01-25T09:17:57.370Z,11.19
2018-01-25T09:19:50.735Z,11.27
2018-01-25T09:20:50.696Z,11.36
2018-01-25T09:22:44.073Z,11.38
2018-01-25T09:23:44.029Z,11.43
2018-01-25T09:25:37.388Z,11.45
2018-01-25T09:26:37.344Z,11.49
2018-01-25T09:28:31.804Z,11.45
2018-01-25T09:29:31.670Z,11.54
2018-01-25T09:31:25.038Z,11.48
2018-01-25T09:32:25.031Z,11.51
2018-01-25T09:34:18.364Z,11.54
2018-01-25T09:35:18.327Z,11.69
2018-01-25T09:37:11.686Z,11.69
2018-01-25T09:38:11.734Z,11.76
2018-01-25T09:40:04.518Z,11.77
2018-01-25T09:41:04.481Z,11.82
2018-01-25T09:42:57.355Z,11.80
2018-01-25T09:43:57.319Z,11.84
2018-01-25T09:45:50.703Z,11.93
2018-01-25T09:46:50.630Z,11.91
2018-01-25T09:48:46.491Z,11.97
2018-01-25T09:49:46.469Z,12.03
2018-01-25T09:51:39.812Z,12.08
2018-01-25T09:52:39.769Z,12.03
2018-01-25T09:54:33.158Z,11.99
2018-01-25T09:55:33.107Z,12.00
2018-01-25T09:57:26.490Z,11.97
2018-01-25T09:58:26.447Z,12.00
2018-01-25T10:00:19.832Z,11.96
2018-01-25T10:01:19.771Z,11.91
2018-01-25T10:03:12.651Z,11.85
2018-01-25T10:04:12.607Z,11.82
2018-01-25T10:06:05.971Z,11.84
2018-01-25T10:07:05.931Z,11.85
2018-01-25T10:08:59.314Z,11.82
2018-01-25T10:09:59.271Z,11.89
2018-01-25T10:11:52.630Z,11.80
2018-01-25T10:12:52.587Z,11.84
2018-01-25T10:14:45.973Z,11.82
2018-01-25T10:15:45.923Z,11.79
2018-01-25T10:17:39.286Z,11.96
2018-01-25T10:18:39.249Z,11.89
2018-01-25T10:20:33.486Z,11.85
2018-01-25T10:21:33.665Z,11.88
2018-01-25T10:23:26.808Z,11.91
2018-01-25T10:24:26.756Z,11.87
2018-01-25T10:26:20.136Z,11.93
2018-01-25T10:27:20.093Z,11.93
2018-01-25T10:29:13.464Z,11.95
2018-01-25T10:30:13.419Z,11.95
2018-01-25T10:32:07.632Z,11.97
2018-01-25T10:33:07.589Z,12.04
2018-01-25T10:35:00.981Z,12.03
2018-01-25T10:36:00.937Z,12.05
2018-01-25T10:37:54.296Z,12.07
2018-01-25T10:38:54.253Z,12.04
2018-01-25T10:40:47.624Z,12.11
2018-01-25T10:41:47.583Z,12.15
2018-01-25T10:43:43.466Z,12.14
2018-01-25T10:44:43.431Z,12.15
2018-01-25T10:46:39.292Z,12.22
2018-01-25T10:47:39.255Z,12.17
2018-01-25T10:49:33.462Z,12.18
2018-01-25T10:50:33.414Z,12.17
2018-01-25T10:52:27.665Z,12.25
2018-01-25T10:53:27.614Z,12.17
2018-01-25T10:55:23.491Z,12.22
2018-01-25T10:56:23.442Z,12.18
2018-01-25T10:58:17.673Z,12.15
2018-01-25T10:59:17.629Z,12.18
2018-01-25T11:01:11.001Z,12.21
2018-01-25T11:02:10.956Z,12.21
2018-01-25T11:04:04.325Z,12.17
2018-01-25T11:05:04.290Z,12.26
2018-01-25T11:06:57.646Z,12.18
2018-01-25T11:07:57.609Z,12.17
2018-01-25T11:09:50.996Z,12.15
2018-01-25T11:10:50.942Z,12.17
2018-01-25T11:12:44.363Z,12.22
2018-01-25T11:13:44.310Z,12.18
2018-01-25T11:15:37.691Z,12.15
2018-01-25T11:16:37.636Z,12.23
2018-01-25T11:18:31.017Z,12.22
2018-01-25T11:19:30.964Z,12.23
2018-01-25T11:21:24.350Z,12.18
2018-01-25T11:22:24.289Z,12.23
2018-01-25T11:24:17.655Z,12.23
2018-01-25T11:25:17.630Z,12.26
2018-01-25T11:27:11.016Z,12.28
2018-01-25T11:28:10.956Z,12.21
2018-01-25T11:30:04.309Z,12.25
2018-01-25T11:31:04.278Z,12.17
2018-01-25T11:32:57.644Z,12.23
2018-01-25T11:33:57.599Z,12.23
2018-01-25T11:35:54.365Z,12.40
2018-01-25T11:36:54.327Z,12.28
2018-01-25T11:38:47.698Z,12.35
2018-01-25T11:39:47.657Z,12.28
2018-01-25T11:41:41.024Z,12.33
2018-01-25T11:42:40.981Z,12.22
2018-01-25T11:44:34.328Z,12.36
2018-01-25T11:45:34.301Z,12.17
2018-01-25T11:47:27.670Z,12.26
2018-01-25T11:48:27.619Z,12.32
2018-01-25T11:50:20.988Z,12.33
2018-01-25T11:51:20.993Z,12.33
2018-01-25T11:53:14.310Z,12.33
2018-01-25T11:54:14.271Z,12.26
2018-01-25T11:56:07.638Z,12.35
2018-01-25T11:57:07.604Z,12.43
2018-01-25T11:59:01.812Z,12.44
2018-01-25T12:00:01.761Z,12.44
2018-01-25T12:01:55.148Z,12.43
2018-01-25T12:02:55.083Z,12.47
2018-01-25T12:04:48.836Z,12.38
2018-01-25T12:05:48.799Z,12.40
2018-01-25T12:07:44.675Z,12.35
2018-01-25T12:08:44.642Z,12.38
2018-01-25T12:10:38.013Z,12.25
2018-01-25T12:11:37.959Z,12.32
2018-01-25T12:13:31.322Z,12.28
2018-01-25T12:14:31.331Z,12.35
2018-01-25T12:16:24.659Z,12.26
2018-01-25T12:17:24.605Z,12.35
2018-01-25T12:19:17.976Z,12.26
2018-01-25T12:20:17.929Z,12.28
2018-01-25T12:22:11.314Z,12.22
2018-01-25T12:23:11.271Z,12.25
2018-01-25T12:25:05.472Z,12.26
2018-01-25T12:26:05.432Z,12.22
2018-01-25T12:27:58.802Z,12.18
2018-01-25T12:28:58.747Z,12.23
2018-01-25T12:30:52.102Z,12.21
2018-01-25T12:31:52.064Z,12.17
2018-01-25T12:33:45.445Z,12.17
2018-01-25T12:34:45.405Z,12.21
2018-01-25T12:36:41.287Z,12.13
2018-01-25T12:37:41.238Z,12.14
2018-01-25T12:39:34.616Z,12.23
2018-01-25T12:40:34.556Z,12.11
2018-01-25T12:42:27.961Z,12.07
2018-01-25T12:43:27.889Z,12.08
2018-01-25T12:45:21.255Z,12.03
2018-01-25T12:46:21.220Z,12.08
2018-01-25T12:48:14.575Z,12.07
2018-01-25T12:49:14.536Z,12.13
2018-01-25T12:51:07.900Z,12.10
2018-01-25T12:52:07.862Z,12.03
2018-01-25T12:54:01.219Z,12.08
2018-01-25T12:55:01.178Z,12.03
2018-01-25T12:56:54.547Z,12.07
2018-01-25T12:57:54.506Z,12.04
2018-01-25T12:59:47.880Z,11.99
2018-01-25T13:00:47.842Z,12.04
2018-01-25T13:02:41.209Z,12.04
2018-01-25T13:03:41.170Z,12.00
2018-01-25T13:05:34.539Z,11.97
2018-01-25T13:06:34.516Z,11.93
2018-01-25T13:08:30.367Z,12.05
2018-01-25T13:09:30.325Z,11.99
2018-01-25T13:11:23.716Z,11.91
2018-01-25T13:12:23.659Z,11.96
2018-01-25T13:14:17.020Z,11.97
2018-01-25T13:15:16.978Z,12.03
2018-01-25T13:17:10.343Z,11.95
2018-01-25T13:18:10.300Z,11.97
2018-01-25T13:20:03.674Z,11.95
2018-01-25T13:21:03.629Z,11.99
2018-01-25T13:22:56.995Z,11.88
2018-01-25T13:23:56.954Z,11.88
2018-01-25T13:25:50.381Z,11.87
2018-01-25T13:26:50.287Z,11.97
2018-01-25T13:28:43.663Z,11.97
2018-01-25T13:29:43.608Z,11.96
2018-01-25T13:31:36.976Z,11.89
2018-01-25T13:32:36.943Z,11.97
2018-01-25T13:34:32.798Z,11.93
2018-01-25T13:35:32.759Z,11.97
2018-01-25T13:37:26.122Z,11.87
2018-01-25T13:38:26.085Z,11.97
2018-01-25T13:40:19.446Z,11.96
2018-01-25T13:41:19.404Z,11.88
2018-01-25T13:43:12.769Z,11.91
2018-01-25T13:44:12.723Z,11.84
2018-01-25T13:46:08.593Z,11.85
2018-01-25T13:47:08.575Z,11.85
2018-01-25T13:49:01.916Z,11.80
2018-01-25T13:50:01.877Z,11.80
2018-01-25T13:51:56.238Z,11.85
2018-01-25T13:52:56.252Z,11.89
2018-01-25T13:54:49.562Z,11.74
2018-01-25T13:55:49.513Z,11.87
2018-01-25T13:57:42.872Z,11.80
2018-01-25T13:58:42.830Z,11.82
2018-01-25T14:00:36.200Z,11.79
2018-01-25T14:01:36.149Z,11.85
2018-01-25T14:03:29.598Z,11.84
2018-01-25T14:04:29.541Z,11.84
2018-01-25T14:06:22.416Z,11.84
2018-01-25T14:07:22.367Z,11.85
2018-01-25T14:09:16.597Z,11.84
2018-01-25T14:10:16.561Z,11.85
2018-01-25T14:12:09.950Z,11.84
2018-01-25T14:13:09.917Z,11.85
2018-01-25T14:15:04.112Z,11.87
2018-01-25T14:16:04.165Z,11.87
2018-01-25T14:17:57.444Z,11.82
2018-01-25T14:18:57.386Z,11.84
2018-01-25T14:20:51.651Z,11.77
2018-01-25T14:21:51.586Z,11.85
2018-01-25T14:23:44.943Z,11.79
2018-01-25T14:24:44.904Z,11.77
2018-01-25T14:26:40.777Z,11.71
2018-01-25T14:27:40.722Z,11.70
2018-01-25T14:29:34.079Z,11.69
2018-01-25T14:30:34.054Z,11.61
2018-01-25T14:32:27.410Z,11.59
2018-01-25T14:33:27.366Z,11.64
2018-01-25T14:35:20.769Z,11.66
2018-01-25T14:36:20.726Z,11.59
2018-01-25T14:38:14.971Z,11.55
2018-01-25T14:39:14.930Z,11.58
2018-01-25T14:41:08.341Z,11.49
2018-01-25T14:42:08.266Z,11.52
2018-01-25T14:44:01.669Z,11.46
2018-01-25T14:45:01.592Z,11.51
2018-01-25T14:46:54.951Z,11.52
2018-01-25T14:47:54.916Z,11.61
2018-01-25T14:49:48.305Z,11.55
2018-01-25T14:50:48.227Z,11.64
2018-01-25T14:52:41.587Z,11.58
2018-01-25T14:53:41.544Z,11.52
2018-01-25T14:55:35.714Z,11.54
2018-01-25T14:56:35.663Z,11.51
2018-01-25T14:58:29.035Z,11.51
2018-01-25T14:59:28.988Z,11.58
2018-01-25T15:01:22.418Z,11.56
2018-01-25T15:02:22.315Z,11.54
2018-01-25T15:04:15.683Z,11.52
2018-01-25T15:05:15.640Z,11.64
2018-01-25T15:07:09.029Z,11.56
2018-01-25T15:08:08.989Z,11.58
2018-01-25T15:10:02.343Z,11.52
2018-01-25T15:11:02.305Z,11.54
2018-01-25T15:12:55.661Z,11.49
2018-01-25T15:13:55.624Z,11.62
2018-01-25T15:15:48.987Z,11.54
2018-01-25T15:16:48.954Z,11.56
2018-01-25T15:18:42.325Z,11.49
2018-01-25T15:19:42.277Z,11.56
2018-01-25T15:21:35.649Z,11.56
2018-01-25T15:22:35.609Z,11.51
2018-01-25T15:24:31.474Z,11.62
2018-01-25T15:25:31.465Z,11.59
2018-01-25T15:27:24.782Z,11.55
2018-01-25T15:28:24.741Z,11.56
2018-01-25T15:30:18.115Z,11.54
2018-01-25T15:31:18.063Z,11.55
2018-01-25T15:33:13.924Z,11.59
2018-01-25T15:34:13.885Z,11.54
2018-01-25T15:36:08.116Z,11.54
2018-01-25T15:37:08.065Z,11.54
2018-01-25T15:39:01.422Z,11.61
2018-01-25T15:40:01.387Z,11.54
2018-01-25T15:41:54.758Z,11.54
2018-01-25T15:42:54.719Z,11.62
2018-01-25T15:44:48.089Z,11.52
2018-01-25T15:45:48.046Z,11.58
2018-01-25T15:47:43.955Z,11.55
2018-01-25T15:48:43.926Z,11.62
2018-01-25T15:50:38.125Z,11.49
2018-01-25T15:51:38.094Z,11.51
2018-01-25T15:53:33.997Z,11.55
2018-01-25T15:54:33.914Z,11.51
2018-01-25T15:56:27.279Z,11.51
2018-01-25T15:57:27.222Z,11.61
2018-01-25T15:59:21.586Z,11.61
2018-01-25T16:00:21.586Z,11.55
2018-01-25T16:02:15.927Z,11.67
2018-01-25T16:03:15.887Z,11.62
2018-01-25T16:05:10.282Z,11.69
2018-01-25T16:06:10.221Z,11.70
2018-01-25T16:08:04.628Z,11.84
2018-01-25T16:09:04.570Z,11.69
2018-01-25T16:11:10.686Z,11.79
2018-01-25T16:12:10.633Z,11.69
2018-01-25T16:14:07.509Z,11.77
2018-01-25T16:15:07.467Z,11.85
2018-01-25T16:17:01.853Z,11.80
2018-01-25T16:18:01.793Z,11.85
2018-01-25T16:19:56.167Z,11.88
2018-01-25T16:20:56.126Z,11.87
2018-01-25T16:22:49.500Z,11.85
2018-01-25T16:23:49.452Z,11.93
2018-01-25T16:25:42.816Z,11.87
2018-01-25T16:26:42.778Z,11.80
2018-01-25T16:28:36.147Z,11.87
2018-01-25T16:29:36.110Z,11.76
2018-01-25T16:31:29.491Z,11.80
2018-01-25T16:32:29.434Z,11.82
2018-01-25T16:34:25.311Z,11.84
2018-01-25T16:35:25.265Z,11.69
2018-01-25T16:37:18.675Z,11.73
2018-01-25T16:38:18.629Z,11.70
2018-01-25T16:40:11.463Z,11.76
2018-01-25T16:41:11.418Z,11.71
2018-01-25T16:43:04.789Z,11.69
2018-01-25T16:44:04.744Z,11.74
2018-01-25T16:45:58.103Z,11.69
2018-01-25T16:46:58.069Z,11.74
2018-01-25T16:48:51.449Z,11.69
2018-01-25T16:49:51.400Z,11.62
2018-01-25T16:51:44.765Z,11.58
2018-01-25T16:52:44.722Z,11.58
2018-01-25T16:54:37.663Z,11.64
2018-01-25T16:55:37.564Z,11.55
2018-01-25T16:57:30.909Z,11.66
2018-01-25T16:58:30.878Z,11.59
2018-01-25T17:00:24.232Z,11.52
2018-01-25T17:01:24.190Z,11.46
2018-01-25T17:03:17.549Z,11.55
2018-01-25T17:04:17.504Z,11.37
2018-01-25T17:06:11.717Z,11.45
2018-01-25T17:07:11.700Z,11.40
2018-01-25T17:09:05.021Z,11.52
2018-01-25T17:10:04.978Z,11.43
2018-01-25T17:11:58.407Z,11.46
2018-01-25T17:12:58.354Z,11.41
2018-01-25T17:14:51.739Z,11.46
2018-01-25T17:15:51.685Z,11.37
2018-01-25T17:17:45.049Z,11.49
2018-01-25T17:18:45.013Z,11.37
2018-01-25T17:20:38.368Z,11.49
2018-01-25T17:21:38.318Z,11.38
2018-01-25T17:23:31.742Z,11.45
2018-01-25T17:24:31.640Z,11.54
2018-01-25T17:26:24.996Z,11.51
2018-01-25T17:27:24.960Z,11.43
2018-01-25T17:29:18.299Z,11.45
2018-01-25T17:30:18.263Z,11.61
2018-01-25T17:32:11.617Z,11.48
2018-01-25T17:33:11.578Z,11.41
2018-01-25T17:35:04.937Z,11.45
2018-01-25T17:36:04.894Z,11.48
2018-01-25T17:37:58.255Z,11.52
2018-01-25T17:38:58.210Z,11.51
2018-01-25T17:40:51.567Z,11.64
2018-01-25T17:41:51.529Z,11.51
2018-01-25T17:43:44.883Z,11.48
2018-01-25T17:44:44.844Z,11.55
2018-01-25T17:46:38.224Z,11.49
2018-01-25T17:47:38.179Z,11.51
2018-01-25T17:49:31.535Z,11.48
2018-01-25T17:50:31.499Z,11.48
2018-01-25T17:52:24.876Z,11.56
2018-01-25T17:53:24.837Z,11.48
2018-01-25T17:55:18.225Z,11.51
2018-01-25T17:56:18.180Z,11.51
2018-01-25T17:58:11.545Z,11.51
2018-01-25T17:59:11.509Z,11.49
2018-01-25T18:01:04.869Z,11.55
2018-01-25T18:02:04.828Z,11.41
2018-01-25T18:03:58.255Z,11.43
2018-01-25T18:04:58.203Z,11.40
2018-01-25T18:06:51.557Z,11.45
2018-01-25T18:07:51.528Z,11.48
2018-01-25T18:09:44.889Z,11.45
2018-01-25T18:10:44.836Z,11.40
2018-01-25T18:12:38.196Z,11.43
2018-01-25T18:13:38.155Z,11.45
2018-01-25T18:15:31.517Z,11.36
2018-01-25T18:16:31.474Z,11.38
2018-01-25T18:18:24.847Z,11.38
2018-01-25T18:19:24.782Z,11.38
2018-01-25T18:21:18.141Z,11.36
2018-01-25T18:22:18.102Z,11.41
2018-01-25T18:24:10.991Z,11.41
2018-01-25T18:25:10.934Z,11.31
2018-01-25T18:27:06.804Z,11.41
2018-01-25T18:28:06.768Z,11.31
2018-01-25T18:30:00.140Z,11.30
2018-01-25T18:31:00.077Z,11.27
2018-01-25T18:32:54.297Z,11.25
2018-01-25T18:33:54.269Z,11.27
2018-01-25T18:35:47.615Z,11.27
2018-01-25T18:36:47.568Z,11.27
2018-01-25T18:38:40.930Z,11.33